sensor_id;sensor_type;location;lat;lon;timestamp;temperature;humidity
39519;DHT22;25200;53.394;10.414;2023-03-01T00:01:25;0.30;87.70
39519;DHT22;25200;53.394;10.414;2023-03-01T00:03:51;0.30;87.80
39519;DHT22;25200;53.394;10.414;2023-03-01T00:06:17;0.30;87.50
39519;DHT22;25200;53.394;10.414;2023-03-01T00:08:43;0.30;87.70
39519;DHT22;25200;53.394;10.414;2023-03-01T00:11:17;0.30;87.70
39519;DHT22;25200;53.394;10.414;2023-03-01T00:13:44;0.20;87.70
39519;DHT22;25200;53.394;10.414;2023-03-01T00:16:16;0.20;87.60
39519;DHT22;25200;53.394;10.414;2023-03-01T00:18:42;0.20;87.60
39519;DHT22;25200;53.394;10.414;2023-03-01T00:21:08;0.20;87.60
39519;DHT22;25200;53.394;10.414;2023-03-01T00:23:34;0.10;87.40
39519;DHT22;25200;53.394;10.414;2023-03-01T00:26:00;0.10;87.60
39519;DHT22;25200;53.394;10.414;2023-03-01T00:28:26;0.20;87.80
39519;DHT22;25200;53.394;10.414;2023-03-01T00:30:52;0.10;87.50
39519;DHT22;25200;53.394;10.414;2023-03-01T00:33:18;0.10;87.50
39519;DHT22;25200;53.394;10.414;2023-03-01T00:35:44;0.10;87.50
39519;DHT22;25200;53.394;10.414;2023-03-01T00:38:09;0.00;87.70
39519;DHT22;25200;53.394;10.414;2023-03-01T00:40:36;0.00;87.70
39519;DHT22;25200;53.394;10.414;2023-03-01T00:43:02;0.10;87.50
39519;DHT22;25200;53.394;10.414;2023-03-01T00:45:28;0.00;87.20
39519;DHT22;25200;53.394;10.414;2023-03-01T00:47:56;0.00;87.40
39519;DHT22;25200;53.394;10.414;2023-03-01T00:50:23;0.00;87.40
39519;DHT22;25200;53.394;10.414;2023-03-01T00:52:53;0.00;87.40
39519;DHT22;25200;53.394;10.414;2023-03-01T00:55:19;-0.10;87.50
39519;DHT22;25200;53.394;10.414;2023-03-01T00:57:44;-0.10;87.50
39519;DHT22;25200;53.394;10.414;2023-03-01T01:00:11;-0.10;87.60
39519;DHT22;25200;53.394;10.414;2023-03-01T01:02:37;-0.10;87.50
39519;DHT22;25200;53.394;10.414;2023-03-01T01:05:03;-0.10;87.40
39519;DHT22;25200;53.394;10.414;2023-03-01T01:07:28;-0.10;87.50
39519;DHT22;25200;53.394;10.414;2023-03-01T01:09:54;-0.20;87.60
39519;DHT22;25200;53.394;10.414;2023-03-01T01:12:20;-0.20;87.60
39519;DHT22;25200;53.394;10.414;2023-03-01T01:14:45;-0.20;87.60
39519;DHT22;25200;53.394;10.414;2023-03-01T01:17:11;-0.20;87.60
39519;DHT22;25200;53.394;10.414;2023-03-01T01:19:37;-0.20;87.60
39519;DHT22;25200;53.394;10.414;2023-03-01T01:22:03;-0.20;87.70
39519;DHT22;25200;53.394;10.414;2023-03-01T01:24:28;-0.20;87.50
39519;DHT22;25200;53.394;10.414;2023-03-01T01:26:54;-0.20;87.50
39519;DHT22;25200;53.394;10.414;2023-03-01T01:29:20;-0.30;87.70
39519;DHT22;25200;53.394;10.414;2023-03-01T01:31:46;-0.30;88.20
39519;DHT22;25200;53.394;10.414;2023-03-01T01:34:17;-0.30;87.70
39519;DHT22;25200;53.394;10.414;2023-03-01T01:36:43;-0.30;87.70
39519;DHT22;25200;53.394;10.414;2023-03-01T01:39:08;-0.30;87.80
39519;DHT22;25200;53.394;10.414;2023-03-01T01:41:39;-0.30;87.70
39519;DHT22;25200;53.394;10.414;2023-03-01T01:46:39;-0.30;87.60
39519;DHT22;25200;53.394;10.414;2023-03-01T01:49:11;-0.30;87.70
39519;DHT22;25200;53.394;10.414;2023-03-01T01:51:45;-0.30;87.80
39519;DHT22;25200;53.394;10.414;2023-03-01T01:54:36;-0.40;87.60
39519;DHT22;25200;53.394;10.414;2023-03-01T01:57:07;-0.40;87.40
39519;DHT22;25200;53.394;10.414;2023-03-01T01:59:34;-0.40;87.80
39519;DHT22;25200;53.394;10.414;2023-03-01T02:02:02;-0.40;87.70
39519;DHT22;25200;53.394;10.414;2023-03-01T02:04:29;-0.40;87.70
39519;DHT22;25200;53.394;10.414;2023-03-01T02:07:03;-0.40;87.50
39519;DHT22;25200;53.394;10.414;2023-03-01T02:09:31;-0.40;87.70
39519;DHT22;25200;53.394;10.414;2023-03-01T02:11:57;-0.50;87.70
39519;DHT22;25200;53.394;10.414;2023-03-01T02:14:23;-0.50;87.70
39519;DHT22;25200;53.394;10.414;2023-03-01T02:16:49;-0.50;87.80
39519;DHT22;25200;53.394;10.414;2023-03-01T02:27:39;-0.50;87.70
39519;DHT22;25200;53.394;10.414;2023-03-01T02:30:06;-0.60;87.80
39519;DHT22;25200;53.394;10.414;2023-03-01T02:32:33;-0.60;87.60
39519;DHT22;25200;53.394;10.414;2023-03-01T02:34:59;-0.60;87.80
39519;DHT22;25200;53.394;10.414;2023-03-01T02:37:26;-0.60;87.70
39519;DHT22;25200;53.394;10.414;2023-03-01T02:39:59;-0.60;87.70
39519;DHT22;25200;53.394;10.414;2023-03-01T02:42:36;-0.60;87.80
39519;DHT22;25200;53.394;10.414;2023-03-01T02:45:02;-0.60;87.80
39519;DHT22;25200;53.394;10.414;2023-03-01T02:47:28;-0.60;87.80
39519;DHT22;25200;53.394;10.414;2023-03-01T02:49:54;-0.70;87.60
39519;DHT22;25200;53.394;10.414;2023-03-01T02:52:45;-0.70;87.70
39519;DHT22;25200;53.394;10.414;2023-03-01T02:55:17;-0.70;87.70
39519;DHT22;25200;53.394;10.414;2023-03-01T02:57:45;-0.80;87.50
39519;DHT22;25200;53.394;10.414;2023-03-01T03:00:19;-0.70;87.90
39519;DHT22;25200;53.394;10.414;2023-03-01T03:02:46;-0.80;87.80
39519;DHT22;25200;53.394;10.414;2023-03-01T03:05:13;-0.80;87.80
39519;DHT22;25200;53.394;10.414;2023-03-01T03:07:42;-0.80;87.80
39519;DHT22;25200;53.394;10.414;2023-03-01T03:10:13;-0.80;87.70
39519;DHT22;25200;53.394;10.414;2023-03-01T03:12:40;-0.80;88.00
39519;DHT22;25200;53.394;10.414;2023-03-01T03:15:07;-0.80;87.90
39519;DHT22;25200;53.394;10.414;2023-03-01T03:17:37;-0.80;87.90
39519;DHT22;25200;53.394;10.414;2023-03-01T03:20:08;-0.80;88.00
39519;DHT22;25200;53.394;10.414;2023-03-01T03:22:40;-0.80;88.00
39519;DHT22;25200;53.394;10.414;2023-03-01T03:25:08;-0.90;87.90
39519;DHT22;25200;53.394;10.414;2023-03-01T03:27:37;-0.90;88.00
39519;DHT22;25200;53.394;10.414;2023-03-01T03:30:05;-0.90;88.00
39519;DHT22;25200;53.394;10.414;2023-03-01T03:32:38;-0.90;88.10
39519;DHT22;25200;53.394;10.414;2023-03-01T03:35:05;-0.90;88.10
39519;DHT22;25200;53.394;10.414;2023-03-01T03:37:38;-0.90;87.90
39519;DHT22;25200;53.394;10.414;2023-03-01T03:40:23;-0.90;88.10
39519;DHT22;25200;53.394;10.414;2023-03-01T03:42:49;-0.90;88.20
39519;DHT22;25200;53.394;10.414;2023-03-01T03:45:16;-1.00;87.90
39519;DHT22;25200;53.394;10.414;2023-03-01T03:47:42;-0.90;88.30
39519;DHT22;25200;53.394;10.414;2023-03-01T03:50:12;-1.00;88.20
39519;DHT22;25200;53.394;10.414;2023-03-01T03:52:39;-0.90;88.30
39519;DHT22;25200;53.394;10.414;2023-03-01T03:55:07;-0.90;88.50
39519;DHT22;25200;53.394;10.414;2023-03-01T03:57:39;-0.90;88.60
39519;DHT22;25200;53.394;10.414;2023-03-01T04:00:07;-0.90;88.70
39519;DHT22;25200;53.394;10.414;2023-03-01T04:02:42;-0.90;89.10
39519;DHT22;25200;53.394;10.414;2023-03-01T04:05:09;-0.80;88.80
39519;DHT22;25200;53.394;10.414;2023-03-01T04:07:35;-0.80;89.20
39519;DHT22;25200;53.394;10.414;2023-03-01T04:10:07;-0.70;89.10
39519;DHT22;25200;53.394;10.414;2023-03-01T04:12:34;-0.70;89.00
39519;DHT22;25200;53.394;10.414;2023-03-01T04:15:04;-0.70;89.20
39519;DHT22;25200;53.394;10.414;2023-03-01T04:17:50;-0.70;88.90
39519;DHT22;25200;53.394;10.414;2023-03-01T04:20:19;-0.60;88.60
39519;DHT22;25200;53.394;10.414;2023-03-01T04:22:55;-0.60;88.80
39519;DHT22;25200;53.394;10.414;2023-03-01T04:25:23;-0.60;88.30
39519;DHT22;25200;53.394;10.414;2023-03-01T04:27:49;-0.60;88.70
39519;DHT22;25200;53.394;10.414;2023-03-01T04:30:15;-0.60;88.80
39519;DHT22;25200;53.394;10.414;2023-03-01T04:32:41;-0.60;89.00
39519;DHT22;25200;53.394;10.414;2023-03-01T04:35:07;-0.60;88.50
39519;DHT22;25200;53.394;10.414;2023-03-01T04:37:33;-0.60;88.90
39519;DHT22;25200;53.394;10.414;2023-03-01T04:40:03;-0.50;89.00
39519;DHT22;25200;53.394;10.414;2023-03-01T04:42:41;-0.50;89.10
39519;DHT22;25200;53.394;10.414;2023-03-01T04:45:08;-0.50;88.90
39519;DHT22;25200;53.394;10.414;2023-03-01T04:47:39;-0.50;89.20
39519;DHT22;25200;53.394;10.414;2023-03-01T04:50:06;-0.50;89.30
39519;DHT22;25200;53.394;10.414;2023-03-01T04:52:31;-0.40;89.20
39519;DHT22;25200;53.394;10.414;2023-03-01T04:54:57;-0.40;89.40
39519;DHT22;25200;53.394;10.414;2023-03-01T04:57:22;-0.40;89.30
39519;DHT22;25200;53.394;10.414;2023-03-01T04:59:48;-0.30;89.50
39519;DHT22;25200;53.394;10.414;2023-03-01T05:02:14;-0.30;89.60
39519;DHT22;25200;53.394;10.414;2023-03-01T05:04:39;-0.30;89.70
39519;DHT22;25200;53.394;10.414;2023-03-01T05:07:05;-0.30;89.20
39519;DHT22;25200;53.394;10.414;2023-03-01T05:09:31;-0.20;89.60
39519;DHT22;25200;53.394;10.414;2023-03-01T05:11:56;-0.20;89.40
39519;DHT22;25200;53.394;10.414;2023-03-01T05:14:22;-0.20;89.50
39519;DHT22;25200;53.394;10.414;2023-03-01T05:16:48;-0.20;89.60
39519;DHT22;25200;53.394;10.414;2023-03-01T05:19:14;-0.20;89.50
39519;DHT22;25200;53.394;10.414;2023-03-01T05:21:48;-0.20;89.50
39519;DHT22;25200;53.394;10.414;2023-03-01T05:24:31;-0.10;89.60
39519;DHT22;25200;53.394;10.414;2023-03-01T05:26:57;-0.10;89.20
39519;DHT22;25200;53.394;10.414;2023-03-01T05:29:24;-0.10;89.30
39519;DHT22;25200;53.394;10.414;2023-03-01T05:31:54;-0.10;89.50
39519;DHT22;25200;53.394;10.414;2023-03-01T05:34:25;0.00;90.00
39519;DHT22;25200;53.394;10.414;2023-03-01T05:36:52;0.00;89.40
39519;DHT22;25200;53.394;10.414;2023-03-01T05:39:20;0.00;89.40
39519;DHT22;25200;53.394;10.414;2023-03-01T05:41:46;0.00;88.90
39519;DHT22;25200;53.394;10.414;2023-03-01T05:44:13;0.00;88.70
39519;DHT22;25200;53.394;10.414;2023-03-01T05:46:38;0.10;89.10
39519;DHT22;25200;53.394;10.414;2023-03-01T05:49:04;0.10;88.90
39519;DHT22;25200;53.394;10.414;2023-03-01T05:51:30;0.10;88.80
39519;DHT22;25200;53.394;10.414;2023-03-01T05:53:56;0.10;89.10
39519;DHT22;25200;53.394;10.414;2023-03-01T05:56:22;0.10;89.10
39519;DHT22;25200;53.394;10.414;2023-03-01T05:58:48;0.10;88.40
39519;DHT22;25200;53.394;10.414;2023-03-01T06:01:15;0.20;88.90
39519;DHT22;25200;53.394;10.414;2023-03-01T06:03:40;0.20;89.00
39519;DHT22;25200;53.394;10.414;2023-03-01T06:06:06;0.20;89.30
39519;DHT22;25200;53.394;10.414;2023-03-01T06:08:32;0.20;89.00
39519;DHT22;25200;53.394;10.414;2023-03-01T06:10:58;0.20;89.00
39519;DHT22;25200;53.394;10.414;2023-03-01T06:13:24;0.20;88.30
39519;DHT22;25200;53.394;10.414;2023-03-01T06:15:50;0.30;89.10
39519;DHT22;25200;53.394;10.414;2023-03-01T06:18:16;0.30;88.80
39519;DHT22;25200;53.394;10.414;2023-03-01T06:20:42;0.30;88.70
39519;DHT22;25200;53.394;10.414;2023-03-01T06:23:07;0.30;88.90
39519;DHT22;25200;53.394;10.414;2023-03-01T06:25:33;0.30;88.30
39519;DHT22;25200;53.394;10.414;2023-03-01T06:27:59;0.30;88.30
39519;DHT22;25200;53.394;10.414;2023-03-01T06:30:25;0.40;88.10
39519;DHT22;25200;53.394;10.414;2023-03-01T06:32:52;0.40;88.20
39519;DHT22;25200;53.394;10.414;2023-03-01T06:35:18;0.40;88.20
39519;DHT22;25200;53.394;10.414;2023-03-01T06:37:46;0.50;88.20
39519;DHT22;25200;53.394;10.414;2023-03-01T06:40:12;0.50;88.10
39519;DHT22;25200;53.394;10.414;2023-03-01T06:42:41;0.50;88.20
39519;DHT22;25200;53.394;10.414;2023-03-01T06:45:08;0.50;88.10
39519;DHT22;25200;53.394;10.414;2023-03-01T06:47:34;0.60;88.10
39519;DHT22;25200;53.394;10.414;2023-03-01T06:50:01;0.50;88.00
39519;DHT22;25200;53.394;10.414;2023-03-01T06:52:27;0.60;87.90
39519;DHT22;25200;53.394;10.414;2023-03-01T06:54:52;0.60;88.00
39519;DHT22;25200;53.394;10.414;2023-03-01T06:57:19;0.60;88.10
39519;DHT22;25200;53.394;10.414;2023-03-01T06:59:44;0.60;87.90
39519;DHT22;25200;53.394;10.414;2023-03-01T07:02:11;0.70;87.90
39519;DHT22;25200;53.394;10.414;2023-03-01T07:04:38;0.70;87.80
39519;DHT22;25200;53.394;10.414;2023-03-01T07:07:03;0.70;87.90
39519;DHT22;25200;53.394;10.414;2023-03-01T07:09:29;0.70;87.70
39519;DHT22;25200;53.394;10.414;2023-03-01T07:11:56;0.80;87.90
39519;DHT22;25200;53.394;10.414;2023-03-01T07:14:21;0.80;87.80
39519;DHT22;25200;53.394;10.414;2023-03-01T07:16:49;0.80;87.80
39519;DHT22;25200;53.394;10.414;2023-03-01T07:19:15;0.80;87.70
39519;DHT22;25200;53.394;10.414;2023-03-01T07:21:41;0.90;88.00
39519;DHT22;25200;53.394;10.414;2023-03-01T07:24:09;0.90;87.90
39519;DHT22;25200;53.394;10.414;2023-03-01T07:26:35;0.90;88.30
39519;DHT22;25200;53.394;10.414;2023-03-01T07:29:02;0.90;87.90
39519;DHT22;25200;53.394;10.414;2023-03-01T07:31:28;0.90;87.90
39519;DHT22;25200;53.394;10.414;2023-03-01T07:33:54;0.90;87.80
39519;DHT22;25200;53.394;10.414;2023-03-01T07:36:20;1.00;87.90
39519;DHT22;25200;53.394;10.414;2023-03-01T07:38:46;1.00;87.80
39519;DHT22;25200;53.394;10.414;2023-03-01T07:41:12;1.00;87.90
39519;DHT22;25200;53.394;10.414;2023-03-01T07:43:38;1.10;87.90
39519;DHT22;25200;53.394;10.414;2023-03-01T07:46:04;1.10;87.80
39519;DHT22;25200;53.394;10.414;2023-03-01T07:48:30;1.20;87.80
39519;DHT22;25200;53.394;10.414;2023-03-01T07:51:04;1.20;87.80
39519;DHT22;25200;53.394;10.414;2023-03-01T07:53:30;1.20;87.60
39519;DHT22;25200;53.394;10.414;2023-03-01T07:56:12;1.30;87.70
39519;DHT22;25200;53.394;10.414;2023-03-01T07:58:41;1.40;87.80
39519;DHT22;25200;53.394;10.414;2023-03-01T08:01:09;1.40;87.70
39519;DHT22;25200;53.394;10.414;2023-03-01T08:03:36;1.40;87.60
39519;DHT22;25200;53.394;10.414;2023-03-01T08:06:03;1.50;87.60
39519;DHT22;25200;53.394;10.414;2023-03-01T08:08:29;1.50;87.60
39519;DHT22;25200;53.394;10.414;2023-03-01T08:11:03;1.60;87.70
39519;DHT22;25200;53.394;10.414;2023-03-01T08:13:30;1.60;87.70
39519;DHT22;25200;53.394;10.414;2023-03-01T08:16:01;1.60;87.70
39519;DHT22;25200;53.394;10.414;2023-03-01T08:18:27;1.70;87.80
39519;DHT22;25200;53.394;10.414;2023-03-01T08:20:53;1.80;87.70
39519;DHT22;25200;53.394;10.414;2023-03-01T08:23:18;1.90;87.70
39519;DHT22;25200;53.394;10.414;2023-03-01T08:25:44;1.90;87.70
39519;DHT22;25200;53.394;10.414;2023-03-01T08:28:10;2.00;87.70
39519;DHT22;25200;53.394;10.414;2023-03-01T08:30:35;2.10;87.80
39519;DHT22;25200;53.394;10.414;2023-03-01T08:33:01;2.10;87.70
39519;DHT22;25200;53.394;10.414;2023-03-01T08:35:27;2.10;87.70
39519;DHT22;25200;53.394;10.414;2023-03-01T08:37:52;2.20;87.80
39519;DHT22;25200;53.394;10.414;2023-03-01T08:40:18;2.20;87.60
39519;DHT22;25200;53.394;10.414;2023-03-01T08:42:44;2.30;87.70
39519;DHT22;25200;53.394;10.414;2023-03-01T08:45:10;2.30;87.60
39519;DHT22;25200;53.394;10.414;2023-03-01T08:47:36;2.30;87.60
39519;DHT22;25200;53.394;10.414;2023-03-01T08:50:03;2.30;87.70
39519;DHT22;25200;53.394;10.414;2023-03-01T08:52:29;2.30;87.60
39519;DHT22;25200;53.394;10.414;2023-03-01T08:54:57;2.30;87.70
39519;DHT22;25200;53.394;10.414;2023-03-01T08:57:22;2.20;87.50
39519;DHT22;25200;53.394;10.414;2023-03-01T08:59:48;2.20;87.60
39519;DHT22;25200;53.394;10.414;2023-03-01T09:02:16;2.20;87.60
39519;DHT22;25200;53.394;10.414;2023-03-01T09:04:42;2.20;87.70
39519;DHT22;25200;53.394;10.414;2023-03-01T09:07:08;2.20;87.70
39519;DHT22;25200;53.394;10.414;2023-03-01T09:09:34;2.20;87.70
39519;DHT22;25200;53.394;10.414;2023-03-01T09:12:00;2.20;87.80
39519;DHT22;25200;53.394;10.414;2023-03-01T09:14:26;2.20;87.80
39519;DHT22;25200;53.394;10.414;2023-03-01T09:16:52;2.20;87.80
39519;DHT22;25200;53.394;10.414;2023-03-01T09:19:17;2.20;87.80
39519;DHT22;25200;53.394;10.414;2023-03-01T09:21:43;2.20;88.00
39519;DHT22;25200;53.394;10.414;2023-03-01T09:24:19;2.30;88.20
39519;DHT22;25200;53.394;10.414;2023-03-01T09:26:45;2.30;88.20
39519;DHT22;25200;53.394;10.414;2023-03-01T09:29:14;2.40;88.40
39519;DHT22;25200;53.394;10.414;2023-03-01T09:31:40;2.40;88.20
39519;DHT22;25200;53.394;10.414;2023-03-01T09:34:07;2.40;88.10
39519;DHT22;25200;53.394;10.414;2023-03-01T09:36:33;2.50;88.10
39519;DHT22;25200;53.394;10.414;2023-03-01T09:38:59;2.50;88.20
39519;DHT22;25200;53.394;10.414;2023-03-01T09:44:39;2.60;88.30
39519;DHT22;25200;53.394;10.414;2023-03-01T09:47:20;2.70;88.40
39519;DHT22;25200;53.394;10.414;2023-03-01T09:50:05;2.70;88.40
39519;DHT22;25200;53.394;10.414;2023-03-01T09:52:46;2.80;88.50
39519;DHT22;25200;53.394;10.414;2023-03-01T09:55:17;2.90;88.50
39519;DHT22;25200;53.394;10.414;2023-03-01T09:57:58;3.00;88.50
39519;DHT22;25200;53.394;10.414;2023-03-01T10:00:47;3.20;88.80
39519;DHT22;25200;53.394;10.414;2023-03-01T10:05:56;3.60;90.20
39519;DHT22;25200;53.394;10.414;2023-03-01T10:08:29;3.90;90.40
39519;DHT22;25200;53.394;10.414;2023-03-01T10:10:57;4.20;89.60
39519;DHT22;25200;53.394;10.414;2023-03-01T10:18:37;4.70;88.80
39519;DHT22;25200;53.394;10.414;2023-03-01T10:21:14;4.90;88.80
39519;DHT22;25200;53.394;10.414;2023-03-01T10:23:42;5.00;89.10
39519;DHT22;25200;53.394;10.414;2023-03-01T10:26:38;5.20;90.40
39519;DHT22;25200;53.394;10.414;2023-03-01T10:29:10;5.40;90.20
39519;DHT22;25200;53.394;10.414;2023-03-01T10:31:51;5.60;90.20
39519;DHT22;25200;53.394;10.414;2023-03-01T10:34:19;5.70;90.20
39519;DHT22;25200;53.394;10.414;2023-03-01T10:36:52;5.90;89.90
39519;DHT22;25200;53.394;10.414;2023-03-01T10:39:23;6.10;89.90
39519;DHT22;25200;53.394;10.414;2023-03-01T10:41:58;6.30;90.10
39519;DHT22;25200;53.394;10.414;2023-03-01T10:44:37;6.40;90.20
39519;DHT22;25200;53.394;10.414;2023-03-01T10:47:03;6.60;90.00
39519;DHT22;25200;53.394;10.414;2023-03-01T10:49:29;6.80;90.00
39519;DHT22;25200;53.394;10.414;2023-03-01T10:51:55;7.00;89.60
39519;DHT22;25200;53.394;10.414;2023-03-01T10:54:28;7.10;89.20
39519;DHT22;25200;53.394;10.414;2023-03-01T10:56:57;7.20;89.20
39519;DHT22;25200;53.394;10.414;2023-03-01T11:02:29;7.40;89.50
39519;DHT22;25200;53.394;10.414;2023-03-01T11:07:24;7.50;88.70
39519;DHT22;25200;53.394;10.414;2023-03-01T11:09:50;7.50;88.50
39519;DHT22;25200;53.394;10.414;2023-03-01T11:12:16;7.40;88.40
39519;DHT22;25200;53.394;10.414;2023-03-01T11:14:48;7.40;88.70
39519;DHT22;25200;53.394;10.414;2023-03-01T11:17:29;7.40;88.80
39519;DHT22;25200;53.394;10.414;2023-03-01T11:25:14;7.70;90.90
39519;DHT22;25200;53.394;10.414;2023-03-01T11:27:43;7.90;90.30
39519;DHT22;25200;53.394;10.414;2023-03-01T11:30:29;8.10;91.10
39519;DHT22;25200;53.394;10.414;2023-03-01T11:33:11;8.40;90.70
39519;DHT22;25200;53.394;10.414;2023-03-01T11:35:45;8.60;90.00
39519;DHT22;25200;53.394;10.414;2023-03-01T11:38:22;8.80;90.10
39519;DHT22;25200;53.394;10.414;2023-03-01T11:41:08;9.00;89.70
39519;DHT22;25200;53.394;10.414;2023-03-01T11:43:57;9.20;90.10
39519;DHT22;25200;53.394;10.414;2023-03-01T11:57:02;10.10;89.10
39519;DHT22;25200;53.394;10.414;2023-03-01T12:05:24;10.60;89.00
39519;DHT22;25200;53.394;10.414;2023-03-01T12:11:00;10.90;89.00
39519;DHT22;25200;53.394;10.414;2023-03-01T12:49:38;12.80;88.90
39519;DHT22;25200;53.394;10.414;2023-03-01T12:54:40;13.00;88.80
39519;DHT22;25200;53.394;10.414;2023-03-01T12:57:17;13.10;88.10
39519;DHT22;25200;53.394;10.414;2023-03-01T13:13:23;13.50;88.90
39519;DHT22;25200;53.394;10.414;2023-03-01T13:15:49;13.50;88.80
39519;DHT22;25200;53.394;10.414;2023-03-01T13:33:47;13.80;89.00
39519;DHT22;25200;53.394;10.414;2023-03-01T13:46:48;13.60;87.10
39519;DHT22;25200;53.394;10.414;2023-03-01T13:49:18;13.50;88.40
39519;DHT22;25200;53.394;10.414;2023-03-01T13:51:49;13.50;88.30
39519;DHT22;25200;53.394;10.414;2023-03-01T13:54:16;13.50;88.30
39519;DHT22;25200;53.394;10.414;2023-03-01T13:56:44;13.50;87.20
39519;DHT22;25200;53.394;10.414;2023-03-01T13:59:18;13.50;86.90
39519;DHT22;25200;53.394;10.414;2023-03-01T14:01:44;13.50;86.90
39519;DHT22;25200;53.394;10.414;2023-03-01T14:07:17;13.50;88.40
39519;DHT22;25200;53.394;10.414;2023-03-01T14:09:45;13.60;87.00
39519;DHT22;25200;53.394;10.414;2023-03-01T14:12:31;13.40;86.10
39519;DHT22;25200;53.394;10.414;2023-03-01T14:17:59;13.30;88.20
39519;DHT22;25200;53.394;10.414;2023-03-01T14:20:30;13.40;88.20
39519;DHT22;25200;53.394;10.414;2023-03-01T14:23:01;13.40;88.60
39519;DHT22;25200;53.394;10.414;2023-03-01T14:25:31;13.50;89.20
39519;DHT22;25200;53.394;10.414;2023-03-01T14:27:58;13.60;88.90
39519;DHT22;25200;53.394;10.414;2023-03-01T14:30:27;13.60;87.30
39519;DHT22;25200;53.394;10.414;2023-03-01T14:33:02;13.60;87.20
39519;DHT22;25200;53.394;10.414;2023-03-01T14:35:35;13.60;87.90
39519;DHT22;25200;53.394;10.414;2023-03-01T14:38:01;13.60;87.80
39519;DHT22;25200;53.394;10.414;2023-03-01T14:40:32;13.60;87.60
39519;DHT22;25200;53.394;10.414;2023-03-01T14:43:04;13.60;88.20
39519;DHT22;25200;53.394;10.414;2023-03-01T14:45:33;13.70;88.20
39519;DHT22;25200;53.394;10.414;2023-03-01T14:48:01;13.70;87.20
39519;DHT22;25200;53.394;10.414;2023-03-01T14:50:32;13.70;87.80
39519;DHT22;25200;53.394;10.414;2023-03-01T14:53:04;13.60;86.70
39519;DHT22;25200;53.394;10.414;2023-03-01T14:57:58;13.60;85.40
39519;DHT22;25200;53.394;10.414;2023-03-01T15:00:34;13.70;87.50
39519;DHT22;25200;53.394;10.414;2023-03-01T15:03:08;13.60;86.50
39519;DHT22;25200;53.394;10.414;2023-03-01T15:05:40;13.50;86.80
39519;DHT22;25200;53.394;10.414;2023-03-01T15:08:07;13.50;86.80
39519;DHT22;25200;53.394;10.414;2023-03-01T15:10:39;13.30;85.50
39519;DHT22;25200;53.394;10.414;2023-03-01T15:13:13;13.20;85.90
39519;DHT22;25200;53.394;10.414;2023-03-01T15:15:46;13.10;86.70
39519;DHT22;25200;53.394;10.414;2023-03-01T15:18:16;13.00;86.50
39519;DHT22;25200;53.394;10.414;2023-03-01T15:20:43;12.90;86.30
39519;DHT22;25200;53.394;10.414;2023-03-01T15:23:26;12.80;85.90
39519;DHT22;25200;53.394;10.414;2023-03-01T15:25:53;12.70;86.20
39519;DHT22;25200;53.394;10.414;2023-03-01T15:28:28;12.60;86.60
39519;DHT22;25200;53.394;10.414;2023-03-01T15:31:04;12.50;85.70
39519;DHT22;25200;53.394;10.414;2023-03-01T15:33:34;12.40;86.10
39519;DHT22;25200;53.394;10.414;2023-03-01T15:36:03;12.20;86.30
39519;DHT22;25200;53.394;10.414;2023-03-01T15:38:50;12.10;86.10
39519;DHT22;25200;53.394;10.414;2023-03-01T15:41:45;11.90;86.60
39519;DHT22;25200;53.394;10.414;2023-03-01T15:46:46;11.70;86.60
39519;DHT22;25200;53.394;10.414;2023-03-01T15:49:47;11.60;86.30
39519;DHT22;25200;53.394;10.414;2023-03-01T15:55:04;11.30;86.70
39519;DHT22;25200;53.394;10.414;2023-03-01T15:57:31;11.30;86.50
39519;DHT22;25200;53.394;10.414;2023-03-01T15:59:56;11.20;86.70
39519;DHT22;25200;53.394;10.414;2023-03-01T16:02:23;11.10;86.60
39519;DHT22;25200;53.394;10.414;2023-03-01T16:04:50;11.00;86.70
39519;DHT22;25200;53.394;10.414;2023-03-01T16:07:16;10.90;86.70
39519;DHT22;25200;53.394;10.414;2023-03-01T16:09:42;10.80;86.60
39519;DHT22;25200;53.394;10.414;2023-03-01T16:12:18;10.80;86.70
39519;DHT22;25200;53.394;10.414;2023-03-01T16:14:46;10.70;86.60
39519;DHT22;25200;53.394;10.414;2023-03-01T16:17:11;10.60;86.70
39519;DHT22;25200;53.394;10.414;2023-03-01T16:19:38;10.50;86.70
39519;DHT22;25200;53.394;10.414;2023-03-01T16:22:04;10.40;86.50
39519;DHT22;25200;53.394;10.414;2023-03-01T16:24:30;10.40;87.10
39519;DHT22;25200;53.394;10.414;2023-03-01T16:26:56;10.20;86.60
39519;DHT22;25200;53.394;10.414;2023-03-01T16:29:21;10.20;86.90
39519;DHT22;25200;53.394;10.414;2023-03-01T16:31:47;10.20;87.10
39519;DHT22;25200;53.394;10.414;2023-03-01T16:34:13;10.10;86.90
39519;DHT22;25200;53.394;10.414;2023-03-01T16:36:39;10.00;86.90
39519;DHT22;25200;53.394;10.414;2023-03-01T16:39:05;9.90;86.70
39519;DHT22;25200;53.394;10.414;2023-03-01T16:41:31;9.80;86.80
39519;DHT22;25200;53.394;10.414;2023-03-01T16:43:57;9.70;86.50
39519;DHT22;25200;53.394;10.414;2023-03-01T16:46:25;9.70;86.20
39519;DHT22;25200;53.394;10.414;2023-03-01T16:48:51;9.60;86.60
39519;DHT22;25200;53.394;10.414;2023-03-01T16:51:17;9.50;86.80
39519;DHT22;25200;53.394;10.414;2023-03-01T16:53:43;9.50;86.80
39519;DHT22;25200;53.394;10.414;2023-03-01T16:56:10;9.50;86.80
39519;DHT22;25200;53.394;10.414;2023-03-01T16:58:38;9.40;86.70
39519;DHT22;25200;53.394;10.414;2023-03-01T17:01:16;9.30;86.90
39519;DHT22;25200;53.394;10.414;2023-03-01T17:03:43;9.20;86.70
39519;DHT22;25200;53.394;10.414;2023-03-01T17:06:14;9.20;86.60
39519;DHT22;25200;53.394;10.414;2023-03-01T17:08:41;9.10;86.60
39519;DHT22;25200;53.394;10.414;2023-03-01T17:11:09;9.00;86.80
39519;DHT22;25200;53.394;10.414;2023-03-01T17:13:36;8.90;86.90
39519;DHT22;25200;53.394;10.414;2023-03-01T17:16:07;8.90;87.00
39519;DHT22;25200;53.394;10.414;2023-03-01T17:18:33;8.80;86.80
39519;DHT22;25200;53.394;10.414;2023-03-01T17:20:59;8.80;86.90
39519;DHT22;25200;53.394;10.414;2023-03-01T17:23:26;8.70;87.00
39519;DHT22;25200;53.394;10.414;2023-03-01T17:25:52;8.70;87.10
39519;DHT22;25200;53.394;10.414;2023-03-01T17:28:21;8.60;86.90
39519;DHT22;25200;53.394;10.414;2023-03-01T17:30:48;8.50;86.90
39519;DHT22;25200;53.394;10.414;2023-03-01T17:33:13;8.40;86.60
39519;DHT22;25200;53.394;10.414;2023-03-01T17:35:39;8.40;87.10
39519;DHT22;25200;53.394;10.414;2023-03-01T17:38:05;8.30;86.80
39519;DHT22;25200;53.394;10.414;2023-03-01T17:40:31;8.20;86.90
39519;DHT22;25200;53.394;10.414;2023-03-01T17:42:58;8.20;87.00
39519;DHT22;25200;53.394;10.414;2023-03-01T17:45:24;8.10;87.10
39519;DHT22;25200;53.394;10.414;2023-03-01T17:47:49;8.00;87.10
39519;DHT22;25200;53.394;10.414;2023-03-01T17:50:15;8.00;87.10
39519;DHT22;25200;53.394;10.414;2023-03-01T17:52:41;7.90;87.10
39519;DHT22;25200;53.394;10.414;2023-03-01T17:55:08;7.90;87.20
39519;DHT22;25200;53.394;10.414;2023-03-01T17:57:34;7.80;87.10